Canyon City, Oregon
Current Conditions -  °F | °C
As of 1:35 AM on Friday 28 Nov 2014 (Local Time) from KGCD Reporting Station
Overcast Overcast  
Wind Chill: 11°   Ceiling: 6500
Heat Index: 11°   Visibility: 10mi
Dew Point:   Wind: 18mph
Humidity: 47%   Direction: 190°S
Pressure: 29.9"   Gusts: 25mph
Location:  44.39°N, 118.95°W
Report Text: KGCD 280935Z AUTO 19016G22KT 10SM BKN065 BKN085 OVC120 11/00 A2990 RMK AO2 T01120001
Loading
Personal Weather Stations






























Interactive Weather Map New forecast layout! Learn more

10-Day Weather Forecast

Advertisements
Track Severe Weather on mobile